sensor_id;sensor_type;location;lat;lon;timestamp;pressure;altitude;pressure_sealevel;temperature;humidity
60974;BME280;46846;51.528;5.076;2022-09-27T00:01:52;99231.31;;;10.99;69.25
60974;BME280;46846;51.528;5.076;2022-09-27T00:04:17;99230.56;;;10.97;69.38
60974;BME280;46846;51.528;5.076;2022-09-27T00:06:42;99234.81;;;10.99;69.17
60974;BME280;46846;51.528;5.076;2022-09-27T00:09:08;99231.59;;;10.94;69.19
60974;BME280;46846;51.528;5.076;2022-09-27T00:11:34;99240.25;;;10.98;69.14
60974;BME280;46846;51.528;5.076;2022-09-27T00:14:00;99233.22;;;10.97;69.03
60974;BME280;46846;51.528;5.076;2022-09-27T00:16:27;99238.56;;;10.97;69.22
60974;BME280;46846;51.528;5.076;2022-09-27T00:18:56;99237.88;;;10.93;69.19
60974;BME280;46846;51.528;5.076;2022-09-27T00:21:23;99242.06;;;10.97;69.20
60974;BME280;46846;51.528;5.076;2022-09-27T00:23:48;99248.31;;;10.96;68.71
60974;BME280;46846;51.528;5.076;2022-09-27T00:26:13;99259.19;;;10.93;68.79
60974;BME280;46846;51.528;5.076;2022-09-27T00:28:39;99262.88;;;10.90;69.03
60974;BME280;46846;51.528;5.076;2022-09-27T00:31:04;99253.72;;;10.94;68.90
60974;BME280;46846;51.528;5.076;2022-09-27T00:33:35;99268.00;;;10.93;68.67
60974;BME280;46846;51.528;5.076;2022-09-27T00:36:04;99269.81;;;10.93;68.65
60974;BME280;46846;51.528;5.076;2022-09-27T00:38:29;99273.22;;;10.95;68.90
60974;BME280;46846;51.528;5.076;2022-09-27T00:40:54;99255.56;;;10.94;68.70
60974;BME280;46846;51.528;5.076;2022-09-27T00:43:21;99257.25;;;10.95;68.66
60974;BME280;46846;51.528;5.076;2022-09-27T00:45:48;99248.53;;;10.93;68.84
60974;BME280;46846;51.528;5.076;2022-09-27T00:48:16;99231.59;;;10.94;68.70
60974;BME280;46846;51.528;5.076;2022-09-27T00:50:42;99236.63;;;10.99;68.64
60974;BME280;46846;51.528;5.076;2022-09-27T00:53:18;99241.09;;;10.98;68.64
60974;BME280;46846;51.528;5.076;2022-09-27T00:55:47;99239.38;;;10.97;68.51
60974;BME280;46846;51.528;5.076;2022-09-27T00:58:14;99248.25;;;10.98;68.53
60974;BME280;46846;51.528;5.076;2022-09-27T01:00:43;99239.38;;;10.97;68.38
60974;BME280;46846;51.528;5.076;2022-09-27T01:03:10;99246.63;;;10.95;68.57
60974;BME280;46846;51.528;5.076;2022-09-27T01:05:38;99256.59;;;10.91;68.51
60974;BME280;46846;51.528;5.076;2022-09-27T01:08:04;99261.53;;;10.83;68.81
60974;BME280;46846;51.528;5.076;2022-09-27T01:10:31;99263.91;;;10.88;68.89
60974;BME280;46846;51.528;5.076;2022-09-27T01:13:04;99262.97;;;10.89;68.63
60974;BME280;46846;51.528;5.076;2022-09-27T01:15:34;99268.84;;;10.79;68.71
60974;BME280;46846;51.528;5.076;2022-09-27T01:26:08;99269.81;;;10.78;68.83
60974;BME280;46846;51.528;5.076;2022-09-27T01:38:50;99272.63;;;10.75;68.66
60974;BME280;46846;51.528;5.076;2022-09-27T01:41:55;99277.94;;;10.75;68.64
60974;BME280;46846;51.528;5.076;2022-09-27T01:44:14;99282.31;;;10.76;68.66
60974;BME280;46846;51.528;5.076;2022-09-27T01:46:43;99277.00;;;10.76;68.70
60974;BME280;46846;51.528;5.076;2022-09-27T01:49:11;99281.56;;;10.74;68.78
60974;BME280;46846;51.528;5.076;2022-09-27T01:51:44;99308.16;;;10.74;68.71
60974;BME280;46846;51.528;5.076;2022-09-27T01:54:14;99343.84;;;10.56;69.13
60974;BME280;46846;51.528;5.076;2022-09-27T01:56:45;99321.28;;;10.63;69.02
60974;BME280;46846;51.528;5.076;2022-09-27T02:01:37;99277.16;;;10.59;68.93
60974;BME280;46846;51.528;5.076;2022-09-27T02:04:03;99276.06;;;10.63;68.90
60974;BME280;46846;51.528;5.076;2022-09-27T02:06:30;99284.66;;;10.66;68.77
60974;BME280;46846;51.528;5.076;2022-09-27T02:09:02;99289.81;;;10.70;68.51
60974;BME280;46846;51.528;5.076;2022-09-27T02:11:30;99296.19;;;10.67;68.73
60974;BME280;46846;51.528;5.076;2022-09-27T02:13:57;99301.50;;;10.67;68.54
60974;BME280;46846;51.528;5.076;2022-09-27T02:16:27;99306.06;;;10.65;68.59
60974;BME280;46846;51.528;5.076;2022-09-27T02:19:14;99305.31;;;10.63;68.52
60974;BME280;46846;51.528;5.076;2022-09-27T02:24:12;99311.56;;;10.62;68.69
60974;BME280;46846;51.528;5.076;2022-09-27T02:26:39;99298.44;;;10.59;68.80
60974;BME280;46846;51.528;5.076;2022-09-27T02:29:07;99284.56;;;10.53;68.78
60974;BME280;46846;51.528;5.076;2022-09-27T02:31:35;99275.91;;;10.50;68.90
60974;BME280;46846;51.528;5.076;2022-09-27T02:34:02;99275.81;;;10.51;68.87
60974;BME280;46846;51.528;5.076;2022-09-27T02:36:29;99285.44;;;10.54;68.78
60974;BME280;46846;51.528;5.076;2022-09-27T02:38:55;99278.19;;;10.56;68.67
60974;BME280;46846;51.528;5.076;2022-09-27T02:41:21;99300.34;;;10.57;68.36
60974;BME280;46846;51.528;5.076;2022-09-27T02:43:47;99301.38;;;10.54;68.73
60974;BME280;46846;51.528;5.076;2022-09-27T02:54:15;99294.53;;;10.50;68.65
60974;BME280;46846;51.528;5.076;2022-09-27T02:59:27;99288.16;;;10.52;68.66
60974;BME280;46846;51.528;5.076;2022-09-27T03:04:28;99289.72;;;10.40;69.07
60974;BME280;46846;51.528;5.076;2022-09-27T03:06:56;99276.50;;;10.39;68.99
60974;BME280;46846;51.528;5.076;2022-09-27T03:09:24;99278.41;;;10.37;68.98
60974;BME280;46846;51.528;5.076;2022-09-27T03:11:52;99281.94;;;10.37;69.05
60974;BME280;46846;51.528;5.076;2022-09-27T03:14:17;99275.16;;;10.32;69.10
60974;BME280;46846;51.528;5.076;2022-09-27T03:16:42;99276.88;;;10.33;69.12
60974;BME280;46846;51.528;5.076;2022-09-27T03:19:08;99269.56;;;10.36;68.72
60974;BME280;46846;51.528;5.076;2022-09-27T03:21:33;99289.91;;;10.37;69.00
60974;BME280;46846;51.528;5.076;2022-09-27T03:23:59;99293.69;;;10.33;69.00
60974;BME280;46846;51.528;5.076;2022-09-27T03:26:24;99297.97;;;10.36;69.06
60974;BME280;46846;51.528;5.076;2022-09-27T03:28:49;99293.19;;;10.26;69.13
60974;BME280;46846;51.528;5.076;2022-09-27T03:31:14;99289.59;;;10.28;69.16
60974;BME280;46846;51.528;5.076;2022-09-27T03:33:40;99294.22;;;10.24;69.25
60974;BME280;46846;51.528;5.076;2022-09-27T03:36:05;99297.84;;;10.23;69.37
60974;BME280;46846;51.528;5.076;2022-09-27T03:38:31;99303.16;;;10.23;69.18
60974;BME280;46846;51.528;5.076;2022-09-27T03:40:56;99309.31;;;10.23;69.00
60974;BME280;46846;51.528;5.076;2022-09-27T03:43:22;99323.75;;;10.19;69.29
60974;BME280;46846;51.528;5.076;2022-09-27T03:45:48;99328.19;;;10.19;69.28
60974;BME280;46846;51.528;5.076;2022-09-27T03:48:14;99335.06;;;10.23;68.96
60974;BME280;46846;51.528;5.076;2022-09-27T03:50:39;99330.31;;;10.28;69.06
60974;BME280;46846;51.528;5.076;2022-09-27T03:53:04;99334.88;;;10.26;68.88
60974;BME280;46846;51.528;5.076;2022-09-27T03:55:29;99344.81;;;10.22;68.87
60974;BME280;46846;51.528;5.076;2022-09-27T03:57:55;99342.22;;;10.21;68.98
60974;BME280;46846;51.528;5.076;2022-09-27T04:00:20;99348.50;;;10.20;68.98
60974;BME280;46846;51.528;5.076;2022-09-27T04:02:46;99338.81;;;10.19;68.89
60974;BME280;46846;51.528;5.076;2022-09-27T04:05:11;99328.03;;;10.22;68.98
60974;BME280;46846;51.528;5.076;2022-09-27T04:07:36;99325.19;;;10.25;68.95
60974;BME280;46846;51.528;5.076;2022-09-27T04:10:02;99309.22;;;10.25;68.77
60974;BME280;46846;51.528;5.076;2022-09-27T04:12:28;99306.56;;;10.25;68.64
60974;BME280;46846;51.528;5.076;2022-09-27T04:14:54;99301.25;;;10.25;68.71
60974;BME280;46846;51.528;5.076;2022-09-27T04:17:19;99301.53;;;10.20;68.63
60974;BME280;46846;51.528;5.076;2022-09-27T04:19:44;99297.22;;;10.18;68.80
60974;BME280;46846;51.528;5.076;2022-09-27T04:22:10;99306.16;;;10.17;68.81
60974;BME280;46846;51.528;5.076;2022-09-27T04:24:35;99303.56;;;10.15;68.77
60974;BME280;46846;51.528;5.076;2022-09-27T04:27:00;99313.44;;;10.13;68.88
60974;BME280;46846;51.528;5.076;2022-09-27T04:29:25;99316.94;;;10.13;68.81
60974;BME280;46846;51.528;5.076;2022-09-27T04:31:51;99313.59;;;10.10;69.01
60974;BME280;46846;51.528;5.076;2022-09-27T04:34:16;99317.41;;;10.06;68.97
60974;BME280;46846;51.528;5.076;2022-09-27T04:36:41;99311.91;;;10.09;68.94
60974;BME280;46846;51.528;5.076;2022-09-27T04:39:07;99316.47;;;10.07;68.97
60974;BME280;46846;51.528;5.076;2022-09-27T04:41:32;99319.47;;;10.01;69.12
60974;BME280;46846;51.528;5.076;2022-09-27T04:43:59;99320.22;;;10.03;69.08
60974;BME280;46846;51.528;5.076;2022-09-27T04:46:25;99317.66;;;10.01;69.12
60974;BME280;46846;51.528;5.076;2022-09-27T04:48:51;99331.97;;;9.98;69.02
60974;BME280;46846;51.528;5.076;2022-09-27T04:51:16;99324.69;;;10.02;69.17
60974;BME280;46846;51.528;5.076;2022-09-27T04:53:44;99316.97;;;9.97;69.17
60974;BME280;46846;51.528;5.076;2022-09-27T04:56:10;99329.59;;;9.94;69.30
60974;BME280;46846;51.528;5.076;2022-09-27T04:58:36;99318.78;;;9.97;69.31
60974;BME280;46846;51.528;5.076;2022-09-27T05:01:02;99315.34;;;9.95;69.21
60974;BME280;46846;51.528;5.076;2022-09-27T05:03:28;99314.47;;;9.94;69.28
60974;BME280;46846;51.528;5.076;2022-09-27T05:05:53;99313.66;;;9.94;69.22
60974;BME280;46846;51.528;5.076;2022-09-27T05:08:19;99316.38;;;9.92;69.09
60974;BME280;46846;51.528;5.076;2022-09-27T05:10:45;99322.56;;;9.93;69.38
60974;BME280;46846;51.528;5.076;2022-09-27T05:13:11;99323.50;;;9.92;69.20
60974;BME280;46846;51.528;5.076;2022-09-27T05:15:36;99319.78;;;9.94;69.11
60974;BME280;46846;51.528;5.076;2022-09-27T05:18:01;99316.03;;;9.98;69.14
60974;BME280;46846;51.528;5.076;2022-09-27T05:20:27;99314.31;;;9.97;69.00
60974;BME280;46846;51.528;5.076;2022-09-27T05:22:52;99324.97;;;9.97;68.89
60974;BME280;46846;51.528;5.076;2022-09-27T05:25:17;99323.31;;;9.95;69.08
60974;BME280;46846;51.528;5.076;2022-09-27T05:27:42;99327.78;;;9.94;68.87
60974;BME280;46846;51.528;5.076;2022-09-27T05:30:08;99322.44;;;9.94;68.81
60974;BME280;46846;51.528;5.076;2022-09-27T05:32:33;99320.84;;;9.92;68.82
60974;BME280;46846;51.528;5.076;2022-09-27T05:34:59;99332.50;;;9.89;68.98
60974;BME280;46846;51.528;5.076;2022-09-27T05:37:24;99334.03;;;9.93;68.94
60974;BME280;46846;51.528;5.076;2022-09-27T05:39:49;99341.41;;;9.88;68.98
60974;BME280;46846;51.528;5.076;2022-09-27T05:42:15;99336.44;;;9.82;69.31
60974;BME280;46846;51.528;5.076;2022-09-27T05:44:40;99339.88;;;9.84;69.08
60974;BME280;46846;51.528;5.076;2022-09-27T05:47:06;99341.56;;;9.85;68.98
60974;BME280;46846;51.528;5.076;2022-09-27T05:49:32;99344.16;;;9.87;68.92
60974;BME280;46846;51.528;5.076;2022-09-27T05:51:57;99345.78;;;9.89;68.77
60974;BME280;46846;51.528;5.076;2022-09-27T05:54:23;99346.56;;;9.91;68.56
60974;BME280;46846;51.528;5.076;2022-09-27T05:56:48;99338.75;;;9.88;68.66
60974;BME280;46846;51.528;5.076;2022-09-27T05:59:13;99342.44;;;9.85;68.60
60974;BME280;46846;51.528;5.076;2022-09-27T06:01:38;99336.25;;;9.85;68.58
60974;BME280;46846;51.528;5.076;2022-09-27T06:04:04;99338.16;;;9.83;68.83
60974;BME280;46846;51.528;5.076;2022-09-27T06:06:29;99333.00;;;9.80;69.00
60974;BME280;46846;51.528;5.076;2022-09-27T06:08:55;99343.41;;;9.84;68.67
60974;BME280;46846;51.528;5.076;2022-09-27T06:11:20;99346.88;;;9.85;68.76
60974;BME280;46846;51.528;5.076;2022-09-27T06:13:45;99346.28;;;9.80;68.84
60974;BME280;46846;51.528;5.076;2022-09-27T06:16:11;99348.16;;;9.78;69.08
60974;BME280;46846;51.528;5.076;2022-09-27T06:18:36;99347.16;;;9.80;68.94
60974;BME280;46846;51.528;5.076;2022-09-27T06:21:02;99346.06;;;9.84;68.73
60974;BME280;46846;51.528;5.076;2022-09-27T06:23:28;99352.19;;;9.85;68.68
60974;BME280;46846;51.528;5.076;2022-09-27T06:25:59;99347.66;;;9.87;68.65
60974;BME280;46846;51.528;5.076;2022-09-27T06:28:25;99340.75;;;9.84;68.55
60974;BME280;46846;51.528;5.076;2022-09-27T06:30:51;99331.81;;;9.85;68.66
60974;BME280;46846;51.528;5.076;2022-09-27T06:33:17;99329.06;;;9.87;68.52
60974;BME280;46846;51.528;5.076;2022-09-27T06:35:43;99331.81;;;9.85;68.46
60974;BME280;46846;51.528;5.076;2022-09-27T06:38:12;99334.56;;;9.84;68.52
60974;BME280;46846;51.528;5.076;2022-09-27T06:40:40;99338.16;;;9.83;68.39
60974;BME280;46846;51.528;5.076;2022-09-27T06:43:06;99338.22;;;9.81;68.38
60974;BME280;46846;51.528;5.076;2022-09-27T06:45:32;99337.63;;;9.76;68.62
60974;BME280;46846;51.528;5.076;2022-09-27T06:47:59;99342.94;;;9.76;68.87
60974;BME280;46846;51.528;5.076;2022-09-27T06:50:26;99343.81;;;9.77;68.85
60974;BME280;46846;51.528;5.076;2022-09-27T06:52:52;99337.97;;;9.70;68.85
60974;BME280;46846;51.528;5.076;2022-09-27T06:55:17;99337.97;;;9.70;69.00
60974;BME280;46846;51.528;5.076;2022-09-27T06:57:42;99341.56;;;9.69;68.99
60974;BME280;46846;51.528;5.076;2022-09-27T07:00:26;99345.41;;;9.63;69.08
60974;BME280;46846;51.528;5.076;2022-09-27T07:02:52;99351.66;;;9.62;69.09
60974;BME280;46846;51.528;5.076;2022-09-27T07:05:18;99352.44;;;9.64;68.99
60974;BME280;46846;51.528;5.076;2022-09-27T07:07:44;99355.28;;;9.61;69.22
60974;BME280;46846;51.528;5.076;2022-09-27T07:10:10;99355.28;;;9.61;69.28
60974;BME280;46846;51.528;5.076;2022-09-27T07:12:35;99347.38;;;9.60;69.43
60974;BME280;46846;51.528;5.076;2022-09-27T07:15:01;99351.84;;;9.59;69.13
60974;BME280;46846;51.528;5.076;2022-09-27T07:17:26;99349.78;;;9.64;69.30
60974;BME280;46846;51.528;5.076;2022-09-27T07:19:52;99349.00;;;9.62;69.05
60974;BME280;46846;51.528;5.076;2022-09-27T07:22:18;99355.19;;;9.63;69.16
60974;BME280;46846;51.528;5.076;2022-09-27T07:24:43;99353.56;;;9.60;69.25
60974;BME280;46846;51.528;5.076;2022-09-27T07:27:08;99360.31;;;9.66;69.01
60974;BME280;46846;51.528;5.076;2022-09-27T07:29:33;99362.13;;;9.65;69.04
60974;BME280;46846;51.528;5.076;2022-09-27T07:31:59;99369.16;;;9.66;68.83
60974;BME280;46846;51.528;5.076;2022-09-27T07:34:24;99374.38;;;9.68;68.80
60974;BME280;46846;51.528;5.076;2022-09-27T07:36:49;99373.59;;;9.66;68.88
60974;BME280;46846;51.528;5.076;2022-09-27T07:39:14;99373.09;;;9.59;69.28
60974;BME280;46846;51.528;5.076;2022-09-27T07:41:41;99372.84;;;9.64;69.26
60974;BME280;46846;51.528;5.076;2022-09-27T07:44:07;99379.78;;;9.66;68.79
60974;BME280;46846;51.528;5.076;2022-09-27T07:46:32;99380.13;;;9.60;69.22
60974;BME280;46846;51.528;5.076;2022-09-27T07:48:58;99385.31;;;9.62;68.90
60974;BME280;46846;51.528;5.076;2022-09-27T07:51:23;99384.81;;;9.55;69.36
60974;BME280;46846;51.528;5.076;2022-09-27T07:53:49;99380.25;;;9.57;69.58
60974;BME280;46846;51.528;5.076;2022-09-27T07:56:14;99378.22;;;9.62;69.20
60974;BME280;46846;51.528;5.076;2022-09-27T07:58:39;99371.34;;;9.58;69.35
60974;BME280;46846;51.528;5.076;2022-09-27T08:01:05;99376.78;;;9.56;69.25
60974;BME280;46846;51.528;5.076;2022-09-27T08:03:31;99382.09;;;9.56;69.48
60974;BME280;46846;51.528;5.076;2022-09-27T08:05:56;99376.66;;;9.58;69.36
60974;BME280;46846;51.528;5.076;2022-09-27T08:08:21;99373.16;;;9.57;69.32
60974;BME280;46846;51.528;5.076;2022-09-27T08:10:47;99374.63;;;9.63;69.03
60974;BME280;46846;51.528;5.076;2022-09-27T08:13:14;99373.00;;;9.61;69.41
60974;BME280;46846;51.528;5.076;2022-09-27T08:15:41;99372.22;;;9.58;69.35
60974;BME280;46846;51.528;5.076;2022-09-27T08:18:07;99372.28;;;9.57;69.80
60974;BME280;46846;51.528;5.076;2022-09-27T08:20:35;99358.06;;;9.58;69.37
60974;BME280;46846;51.528;5.076;2022-09-27T08:23:00;99360.91;;;9.55;69.33
60974;BME280;46846;51.528;5.076;2022-09-27T08:25:27;99370.34;;;9.61;69.40
60974;BME280;46846;51.528;5.076;2022-09-27T08:27:57;99367.50;;;9.48;69.85
60974;BME280;46846;51.528;5.076;2022-09-27T08:30:23;99369.81;;;9.54;69.68
60974;BME280;46846;51.528;5.076;2022-09-27T08:32:53;99371.53;;;9.55;69.71
60974;BME280;46846;51.528;5.076;2022-09-27T08:35:18;99368.19;;;9.51;69.87
60974;BME280;46846;51.528;5.076;2022-09-27T08:37:51;99376.66;;;9.58;69.74
60974;BME280;46846;51.528;5.076;2022-09-27T08:40:16;99379.31;;;9.58;69.46
60974;BME280;46846;51.528;5.076;2022-09-27T08:45:17;99378.47;;;9.57;69.64
60974;BME280;46846;51.528;5.076;2022-09-27T08:47:45;99374.88;;;9.58;69.63
60974;BME280;46846;51.528;5.076;2022-09-27T08:52:38;99398.59;;;9.62;69.85
60974;BME280;46846;51.528;5.076;2022-09-27T08:55:05;99404.84;;;9.61;69.70
60974;BME280;46846;51.528;5.076;2022-09-27T08:57:39;99402.31;;;9.59;69.68
60974;BME280;46846;51.528;5.076;2022-09-27T09:02:31;99401.81;;;9.68;69.65
60974;BME280;46846;51.528;5.076;2022-09-27T09:04:58;99404.59;;;9.65;69.72
60974;BME280;46846;51.528;5.076;2022-09-27T09:26:10;99433.81;;;9.65;69.80
60974;BME280;46846;51.528;5.076;2022-09-27T09:34:26;99440.06;;;9.64;69.98
60974;BME280;46846;51.528;5.076;2022-09-27T09:39:10;99443.69;;;9.63;69.91
60974;BME280;46846;51.528;5.076;2022-09-27T09:41:42;99443.69;;;9.63;69.98
60974;BME280;46846;51.528;5.076;2022-09-27T09:46:58;99440.94;;;9.65;70.22
60974;BME280;46846;51.528;5.076;2022-09-27T09:49:45;99449.31;;;9.57;70.25
60974;BME280;46846;51.528;5.076;2022-09-27T09:52:18;99457.03;;;9.62;70.43
60974;BME280;46846;51.528;5.076;2022-09-27T09:57:26;99451.66;;;9.63;70.12
60974;BME280;46846;51.528;5.076;2022-09-27T10:02:37;99440.94;;;9.65;70.30
60974;BME280;46846;51.528;5.076;2022-09-27T10:05:03;99446.75;;;9.55;70.39
60974;BME280;46846;51.528;5.076;2022-09-27T10:07:29;99440.25;;;9.61;70.36
60974;BME280;46846;51.528;5.076;2022-09-27T10:09:59;99438.44;;;9.62;70.29
60974;BME280;46846;51.528;5.076;2022-09-27T10:12:25;99441.28;;;9.58;70.31
60974;BME280;46846;51.528;5.076;2022-09-27T10:14:52;99447.59;;;9.56;70.49
60974;BME280;46846;51.528;5.076;2022-09-27T10:17:19;99441.28;;;9.58;70.39
60974;BME280;46846;51.528;5.076;2022-09-27T10:19:45;99451.66;;;9.63;70.31
60974;BME280;46846;51.528;5.076;2022-09-27T10:22:22;99446.00;;;9.69;70.03
60974;BME280;46846;51.528;5.076;2022-09-27T10:25:00;99446.50;;;9.60;70.35
60974;BME280;46846;51.528;5.076;2022-09-27T10:27:27;99448.22;;;9.61;70.31
60974;BME280;46846;51.528;5.076;2022-09-27T10:30:01;99446.50;;;9.60;70.38
60974;BME280;46846;51.528;5.076;2022-09-27T10:32:31;99441.97;;;9.62;70.24
60974;BME280;46846;51.528;5.076;2022-09-27T10:37:43;99434.88;;;9.63;70.31
60974;BME280;46846;51.528;5.076;2022-09-27T10:40:24;99435.72;;;9.63;70.34
60974;BME280;46846;51.528;5.076;2022-09-27T10:42:49;99428.50;;;9.65;70.26
60974;BME280;46846;51.528;5.076;2022-09-27T10:45:28;99425.78;;;9.67;70.17
60974;BME280;46846;51.528;5.076;2022-09-27T10:47:53;99425.72;;;9.68;70.12
60974;BME280;46846;51.528;5.076;2022-09-27T10:50:31;99427.75;;;9.63;70.33
60974;BME280;46846;51.528;5.076;2022-09-27T10:53:01;99413.53;;;9.64;70.17
60974;BME280;46846;51.528;5.076;2022-09-27T10:55:27;99409.91;;;9.65;70.24
60974;BME280;46846;51.528;5.076;2022-09-27T10:57:54;99409.78;;;9.68;70.24
60974;BME280;46846;51.528;5.076;2022-09-27T11:02:45;99399.91;;;9.70;70.00
60974;BME280;46846;51.528;5.076;2022-09-27T11:07:57;99392.63;;;9.74;69.92
60974;BME280;46846;51.528;5.076;2022-09-27T11:10:24;99395.53;;;9.69;70.12
60974;BME280;46846;51.528;5.076;2022-09-27T11:15:30;99389.97;;;9.74;70.06
60974;BME280;46846;51.528;5.076;2022-09-27T11:18:01;99396.16;;;9.75;69.89
60974;BME280;46846;51.528;5.076;2022-09-27T11:20:35;99398.56;;;9.79;69.76
60974;BME280;46846;51.528;5.076;2022-09-27T11:25:44;99399.25;;;9.83;69.73
60974;BME280;46846;51.528;5.076;2022-09-27T11:28:31;99398.31;;;9.84;69.71
60974;BME280;46846;51.528;5.076;2022-09-27T11:38:29;99402.59;;;9.87;69.65
60974;BME280;46846;51.528;5.076;2022-09-27T11:43:36;99396.97;;;9.93;69.75
60974;BME280;46846;51.528;5.076;2022-09-27T12:06:49;99384.50;;;9.93;70.03
60974;BME280;46846;51.528;5.076;2022-09-27T12:09:20;99385.13;;;9.98;69.97
60974;BME280;46846;51.528;5.076;2022-09-27T12:11:51;99374.50;;;9.98;69.78
60974;BME280;46846;51.528;5.076;2022-09-27T12:16:43;99374.75;;;10.10;69.46
60974;BME280;46846;51.528;5.076;2022-09-27T12:19:32;99370.91;;;10.16;69.69
60974;BME280;46846;51.528;5.076;2022-09-27T12:21:56;99369.53;;;10.08;69.55
60974;BME280;46846;51.528;5.076;2022-09-27T12:24:22;99368.66;;;10.08;69.52
60974;BME280;46846;51.528;5.076;2022-09-27T12:26:49;99360.59;;;10.09;69.86
60974;BME280;46846;51.528;5.076;2022-09-27T12:29:21;99374.06;;;10.06;69.83
60974;BME280;46846;51.528;5.076;2022-09-27T12:31:55;99362.50;;;10.07;70.32
60974;BME280;46846;51.528;5.076;2022-09-27T12:34:24;99359.59;;;10.12;69.91
60974;BME280;46846;51.528;5.076;2022-09-27T12:36:57;99355.78;;;10.16;69.90
60974;BME280;46846;51.528;5.076;2022-09-27T12:39:36;99349.53;;;10.17;69.53
60974;BME280;46846;51.528;5.076;2022-09-27T12:42:21;99357.50;;;10.17;69.57
60974;BME280;46846;51.528;5.076;2022-09-27T12:44:48;99358.38;;;10.18;69.94
60974;BME280;46846;51.528;5.076;2022-09-27T12:47:25;99354.75;;;10.19;69.73
60974;BME280;46846;51.528;5.076;2022-09-27T12:50:03;99354.16;;;10.13;69.88
60974;BME280;46846;51.528;5.076;2022-09-27T12:52:36;99352.38;;;10.14;70.20
60974;BME280;46846;51.528;5.076;2022-09-27T13:00:20;99344.88;;;10.21;70.03
60974;BME280;46846;51.528;5.076;2022-09-27T13:02:51;99332.28;;;10.24;69.77
60974;BME280;46846;51.528;5.076;2022-09-27T13:05:38;99328.78;;;10.24;69.92
60974;BME280;46846;51.528;5.076;2022-09-27T13:10:41;99316.16;;;10.28;70.02
60974;BME280;46846;51.528;5.076;2022-09-27T13:13:13;99312.56;;;10.29;69.91
60974;BME280;46846;51.528;5.076;2022-09-27T13:15:41;99311.81;;;10.26;70.21
60974;BME280;46846;51.528;5.076;2022-09-27T13:20:51;99319.25;;;10.36;70.04
60974;BME280;46846;51.528;5.076;2022-09-27T13:30:51;99314.63;;;10.23;70.19
60974;BME280;46846;51.528;5.076;2022-09-27T13:33:27;99317.00;;;10.28;70.16
60974;BME280;46846;51.528;5.076;2022-09-27T13:36:06;99317.53;;;10.35;69.86
60974;BME280;46846;51.528;5.076;2022-09-27T13:38:32;99325.50;;;10.35;70.03
60974;BME280;46846;51.528;5.076;2022-09-27T13:41:16;99341.13;;;10.25;70.09
60974;BME280;46846;51.528;5.076;2022-09-27T13:46:17;99355.63;;;10.03;71.08
60974;BME280;46846;51.528;5.076;2022-09-27T13:48:49;99348.34;;;10.07;71.17
60974;BME280;46846;51.528;5.076;2022-09-27T13:53:42;99333.84;;;10.12;70.97
60974;BME280;46846;51.528;5.076;2022-09-27T13:59:07;99328.88;;;10.22;70.74
60974;BME280;46846;51.528;5.076;2022-09-27T14:01:35;99318.22;;;10.22;70.61
60974;BME280;46846;51.528;5.076;2022-09-27T14:06:44;99318.84;;;10.28;70.85
60974;BME280;46846;51.528;5.076;2022-09-27T14:09:16;99323.19;;;10.29;70.70
60974;BME280;46846;51.528;5.076;2022-09-27T14:11:43;99315.16;;;10.30;70.87
60974;BME280;46846;51.528;5.076;2022-09-27T14:14:16;99314.09;;;10.33;70.50
60974;BME280;46846;51.528;5.076;2022-09-27T14:16:43;99320.19;;;10.35;70.61
60974;BME280;46846;51.528;5.076;2022-09-27T14:19:14;99313.84;;;10.37;70.46
60974;BME280;46846;51.528;5.076;2022-09-27T14:21:41;99304.81;;;10.40;70.67
60974;BME280;46846;51.528;5.076;2022-09-27T14:26:44;99309.91;;;10.45;70.49
60974;BME280;46846;51.528;5.076;2022-09-27T14:29:20;99310.75;;;10.45;70.40
60974;BME280;46846;51.528;5.076;2022-09-27T14:31:46;99304.31;;;10.49;70.32
60974;BME280;46846;51.528;5.076;2022-09-27T14:34:13;99310.41;;;10.51;70.02
60974;BME280;46846;51.528;5.076;2022-09-27T14:36:38;99310.41;;;10.51;70.10
60974;BME280;46846;51.528;5.076;2022-09-27T14:39:30;99314.97;;;10.49;70.22
60974;BME280;46846;51.528;5.076;2022-09-27T14:41:57;99306.78;;;10.52;70.11
60974;BME280;46846;51.528;5.076;2022-09-27T14:44:22;99307.94;;;10.48;70.22
60974;BME280;46846;51.528;5.076;2022-09-27T14:46:48;99305.63;;;10.42;70.54
60974;BME280;46846;51.528;5.076;2022-09-27T14:49:31;99301.94;;;10.45;70.76
60974;BME280;46846;51.528;5.076;2022-09-27T14:51:56;99304.47;;;10.46;70.53
60974;BME280;46846;51.528;5.076;2022-09-27T14:54:26;99312.69;;;10.58;70.10
60974;BME280;46846;51.528;5.076;2022-09-27T14:56:54;99314.75;;;10.52;70.48
60974;BME280;46846;51.528;5.076;2022-09-27T14:59:25;99321.63;;;10.57;70.32
60974;BME280;46846;51.528;5.076;2022-09-27T15:01:54;99320.00;;;10.54;70.45
60974;BME280;46846;51.528;5.076;2022-09-27T15:04:21;99330.63;;;10.54;70.38
60974;BME280;46846;51.528;5.076;2022-09-27T15:06:47;99329.69;;;10.55;70.22
60974;BME280;46846;51.528;5.076;2022-09-27T15:09:13;99334.34;;;10.51;70.41
60974;BME280;46846;51.528;5.076;2022-09-27T15:11:40;99325.88;;;10.45;70.86
60974;BME280;46846;51.528;5.076;2022-09-27T15:14:06;99301.16;;;10.43;70.86
60974;BME280;46846;51.528;5.076;2022-09-27T15:16:35;99303.72;;;10.44;70.62
60974;BME280;46846;51.528;5.076;2022-09-27T15:21:55;99300.72;;;10.34;70.98
60974;BME280;46846;51.528;5.076;2022-09-27T15:24:44;99292.56;;;10.37;70.88
60974;BME280;46846;51.528;5.076;2022-09-27T15:29:38;99290.59;;;10.41;70.55
60974;BME280;46846;51.528;5.076;2022-09-27T15:32:04;99299.34;;;10.43;70.61
60974;BME280;46846;51.528;5.076;2022-09-27T15:34:30;99318.03;;;10.42;70.55
60974;BME280;46846;51.528;5.076;2022-09-27T15:36:58;99319.69;;;10.44;70.47
60974;BME280;46846;51.528;5.076;2022-09-27T15:49:52;99295.75;;;10.44;70.66
60974;BME280;46846;51.528;5.076;2022-09-27T15:55:01;99293.97;;;10.45;70.45
60974;BME280;46846;51.528;5.076;2022-09-27T15:57:27;99291.31;;;10.45;70.45
60974;BME280;46846;51.528;5.076;2022-09-27T15:59:53;99281.34;;;10.48;70.51
60974;BME280;46846;51.528;5.076;2022-09-27T16:02:18;99288.25;;;10.51;70.45
60974;BME280;46846;51.528;5.076;2022-09-27T16:04:45;99289.78;;;10.55;70.19